Time;durP1;ratioP1;P1;durP2;ratioP2;P2;SDS_P1;SDS_P2;PMS_P1;PMS_P2;Temp;Humidity;BMP_temperature;BMP_pressure;BME280_temperature;BME280_humidity;BME280_pressure;Samples;Min_cycle;Max_cycle;Signal;HPM_P1;HPM_P2
2024/01/10 00:01:36;;;;;;;;;;;0.10;99.90;;;;;;2621144;47;19957;-73
2024/01/10 00:04:07;;;;;;;;;;;0.10;99.90;;;;;;2619920;47;20033;-72
2024/01/10 00:06:37;;;;;;;;;;;0.00;99.90;;;;;;2618661;54;19951;-72
2024/01/10 00:09:07;;;;;;;;;;;0.00;99.90;;;;;;2618857;54;20416;-73
2024/01/10 00:11:36;;;;;;;;;;;0.00;99.90;;;;;;2615857;54;19953;-71
2024/01/10 00:14:09;;;;;;;;;;;0.10;99.90;;;;;;2619929;54;19946;-71
2024/01/10 00:16:39;;;;;;;;;;;0.00;99.90;;;;;;2617059;54;19973;-72
2024/01/10 00:19:09;;;;;;;;;;;0.20;99.90;;;;;;2617726;47;19954;-72
2024/01/10 00:21:38;;;;;;;;;;;0.00;99.90;;;;;;2617379;39;20396;-72
2024/01/10 00:24:08;;;;;;;;;;;0.00;99.90;;;;;;2617225;47;19939;-73
2024/01/10 00:26:37;;;;;;;;;;;0.00;99.90;;;;;;2617564;54;19966;-72
2024/01/10 00:29:10;;;;;;;;;;;0.00;99.90;;;;;;2617855;46;20038;-72
2024/01/10 00:31:39;;;;;;;;;;;0.00;99.90;;;;;;2616783;54;19960;-72
2024/01/10 00:34:09;;;;;;;;;;;0.00;99.90;;;;;;2617842;47;19958;-72
2024/01/10 00:36:39;;;;;;;;;;;0.00;99.90;;;;;;2616795;54;20408;-72
2024/01/10 00:39:08;;;;;;;;;;;0.00;99.90;;;;;;2617747;39;20376;-72
2024/01/10 00:41:38;;;;;;;;;;;0.00;99.90;;;;;;2617042;54;19946;-72
2024/01/10 00:44:10;;;;;;;;;;;0.00;99.90;;;;;;2617241;54;19939;-72
2024/01/10 00:46:40;;;;;;;;;;;0.00;99.90;;;;;;2617021;47;19984;-72
2024/01/10 00:49:09;;;;;;;;;;;0.00;99.90;;;;;;2616876;54;19938;-72
2024/01/10 00:51:39;;;;;;;;;;;0.00;99.90;;;;;;2617109;47;19946;-72
2024/01/10 00:54:09;;;;;;;;;;;-0.10;99.90;;;;;;2617282;54;19946;-72
2024/01/10 00:56:38;;;;;;;;;;;-0.10;99.90;;;;;;2617300;47;19947;-71
2024/01/10 00:59:10;;;;;;;;;;;-0.10;99.90;;;;;;2617244;39;20347;-72
2024/01/10 01:01:40;;;;;;;;;;;-0.10;99.90;;;;;;2617009;54;19997;-71
2024/01/10 01:04:10;;;;;;;;;;;0.00;99.90;;;;;;2617537;54;19950;-71
2024/01/10 01:06:39;;;;;;;;;;;0.00;99.90;;;;;;2619686;54;20467;-71
2024/01/10 01:09:09;;;;;;;;;;;0.00;99.90;;;;;;2620410;54;19939;-72
2024/01/10 01:11:38;;;;;;;;;;;0.00;99.90;;;;;;2617740;54;19977;-71
2024/01/10 01:14:11;;;;;;;;;;;0.00;99.90;;;;;;2617639;54;20000;-72
2024/01/10 01:16:40;;;;;;;;;;;0.00;99.90;;;;;;2617249;54;20038;-72
2024/01/10 01:19:10;;;;;;;;;;;0.00;99.90;;;;;;2617621;39;20356;-71
2024/01/10 01:21:40;;;;;;;;;;;-0.10;99.90;;;;;;2616644;46;19950;-72
2024/01/10 01:24:09;;;;;;;;;;;-0.10;99.90;;;;;;2617383;47;19953;-71
2024/01/10 01:26:39;;;;;;;;;;;-0.10;99.90;;;;;;2617811;39;20615;-71
2024/01/10 01:29:11;;;;;;;;;;;-0.10;99.90;;;;;;2617319;47;19953;-71
2024/01/10 01:31:41;;;;;;;;;;;-0.10;99.90;;;;;;2617488;54;19945;-71
2024/01/10 01:34:11;;;;;;;;;;;-0.10;99.90;;;;;;2617643;47;19939;-71
2024/01/10 01:36:40;;;;;;;;;;;-0.20;99.90;;;;;;2616217;47;19947;-71
2024/01/10 01:39:10;;;;;;;;;;;-0.20;99.90;;;;;;2617041;54;20727;-72
2024/01/10 01:41:40;;;;;;;;;;;-0.10;99.90;;;;;;2622527;54;19951;-73
2024/01/10 01:44:12;;;;;;;;;;;-0.10;99.90;;;;;;2618673;47;20441;-73
2024/01/10 01:46:42;;;;;;;;;;;-0.10;99.90;;;;;;2617120;54;19946;-71
2024/01/10 01:49:12;;;;;;;;;;;-0.20;99.90;;;;;;2618741;54;19939;-71
2024/01/10 01:51:42;;;;;;;;;;;-0.20;99.90;;;;;;2617445;47;20025;-71
2024/01/10 01:54:12;;;;;;;;;;;-0.20;99.90;;;;;;2616959;54;19946;-73
2024/01/10 01:56:44;;;;;;;;;;;-0.20;99.90;;;;;;2619490;47;19950;-72
2024/01/10 01:59:17;;;;;;;;;;;-0.20;99.90;;;;;;2621419;47;19946;-72
2024/01/10 02:01:46;;;;;;;;;;;-0.20;99.90;;;;;;2619590;54;19946;-74
2024/01/10 02:04:16;;;;;;;;;;;-0.10;99.90;;;;;;2617506;54;19946;-70
2024/01/10 02:06:46;;;;;;;;;;;-0.10;99.90;;;;;;2616599;47;19945;-71
2024/01/10 02:09:15;;;;;;;;;;;-0.20;99.90;;;;;;2617268;54;19945;-71
2024/01/10 02:11:45;;;;;;;;;;;-0.10;99.90;;;;;;2617873;47;19954;-71
2024/01/10 02:14:17;;;;;;;;;;;-0.10;99.90;;;;;;2618230;54;19947;-71
2024/01/10 02:16:47;;;;;;;;;;;-0.10;99.90;;;;;;2618563;54;19953;-73
2024/01/10 02:19:21;;;;;;;;;;;-0.10;99.90;;;;;;2618932;47;19953;-71
2024/01/10 02:21:51;;;;;;;;;;;-0.10;99.90;;;;;;2617294;47;19938;-71
2024/01/10 02:24:20;;;;;;;;;;;0.00;99.90;;;;;;2615070;51;19953;-72
2024/01/10 02:26:53;;;;;;;;;;;0.00;99.90;;;;;;2617078;47;20445;-73
2024/01/10 02:29:23;;;;;;;;;;;0.00;99.90;;;;;;2617960;47;19946;-71
2024/01/10 02:31:53;;;;;;;;;;;0.00;99.90;;;;;;2618229;54;20013;-71
2024/01/10 02:34:23;;;;;;;;;;;0.00;99.90;;;;;;2617091;54;19965;-71
2024/01/10 02:36:53;;;;;;;;;;;0.00;99.90;;;;;;2618008;39;20446;-70
2024/01/10 02:39:22;;;;;;;;;;;-0.80;99.90;;;;;;2617836;39;20467;-72
2024/01/10 02:41:54;;;;;;;;;;;0.00;99.90;;;;;;2617365;54;19946;-72
2024/01/10 02:44:24;;;;;;;;;;;0.00;99.90;;;;;;2616138;54;19962;-72
2024/01/10 02:46:54;;;;;;;;;;;-0.10;99.90;;;;;;2617201;47;20433;-71
2024/01/10 02:49:24;;;;;;;;;;;-0.10;99.90;;;;;;2617404;39;20356;-71
2024/01/10 02:51:53;;;;;;;;;;;-0.10;99.90;;;;;;2617262;47;19947;-71
2024/01/10 02:54:23;;;;;;;;;;;-0.10;99.90;;;;;;2616851;54;19953;-74
2024/01/10 02:56:55;;;;;;;;;;;-0.10;99.90;;;;;;2616971;54;20460;-71
2024/01/10 02:59:25;;;;;;;;;;;-0.20;99.90;;;;;;2617107;54;19953;-71
2024/01/10 03:01:54;;;;;;;;;;;-0.20;99.90;;;;;;2616840;54;19954;-73
2024/01/10 03:04:24;;;;;;;;;;;-0.20;99.90;;;;;;2616853;47;20004;-73
2024/01/10 03:06:54;;;;;;;;;;;-0.20;99.90;;;;;;2616786;54;19938;-72
2024/01/10 03:09:24;;;;;;;;;;;-0.20;99.90;;;;;;2617004;54;20555;-72
2024/01/10 03:11:56;;;;;;;;;;;-0.20;99.90;;;;;;2618808;54;19938;-72
2024/01/10 03:14:26;;;;;;;;;;;-0.30;99.90;;;;;;2617549;47;19947;-72
2024/01/10 03:16:55;;;;;;;;;;;-0.30;99.90;;;;;;2616515;54;20057;-71
2024/01/10 03:19:25;;;;;;;;;;;-0.40;99.90;;;;;;2620328;54;19950;-73
2024/01/10 03:21:55;;;;;;;;;;;-0.40;99.90;;;;;;2622298;54;19942;-71
2024/01/10 03:24:26;;;;;;;;;;;-0.40;99.90;;;;;;2621246;47;19947;-71
2024/01/10 03:26:59;;;;;;;;;;;-0.60;99.90;;;;;;2614416;49;20495;-75
2024/01/10 03:29:29;;;;;;;;;;;-0.70;99.90;;;;;;2619464;54;19947;-73
2024/01/10 03:31:58;;;;;;;;;;;-0.70;99.90;;;;;;2619284;47;19950;-72
2024/01/10 03:34:28;;;;;;;;;;;-0.80;99.90;;;;;;2619906;47;19968;-73
2024/01/10 03:36:58;;;;;;;;;;;-0.80;99.90;;;;;;2623999;54;19939;-71
2024/01/10 03:39:27;;;;;;;;;;;-0.80;99.90;;;;;;2621838;54;19946;-71
2024/01/10 03:41:59;;;;;;;;;;;-0.80;99.90;;;;;;2619783;54;19950;-71
2024/01/10 03:44:29;;;;;;;;;;;-0.80;99.90;;;;;;2619181;54;19951;-70
2024/01/10 03:46:59;;;;;;;;;;;-0.90;99.90;;;;;;2619399;54;19939;-72
2024/01/10 03:49:29;;;;;;;;;;;-0.90;99.90;;;;;;2621399;54;19939;-70
2024/01/10 03:51:58;;;;;;;;;;;-0.90;99.90;;;;;;2620999;54;19947;-72
2024/01/10 03:54:28;;;;;;;;;;;-0.90;99.90;;;;;;2621494;54;19992;-73
2024/01/10 03:57:00;;;;;;;;;;;-1.00;99.90;;;;;;2621877;50;19938;-72
2024/01/10 03:59:30;;;;;;;;;;;-0.90;99.90;;;;;;2622397;47;20017;-71
2024/01/10 04:02:00;;;;;;;;;;;-0.90;99.90;;;;;;2622811;54;20030;-72
2024/01/10 04:04:30;;;;;;;;;;;-1.00;99.90;;;;;;2622011;54;19977;-71
2024/01/10 04:06:59;;;;;;;;;;;-1.00;99.90;;;;;;2622804;39;20333;-71
2024/01/10 04:09:29;;;;;;;;;;;-1.20;99.90;;;;;;2620325;47;20077;-70
2024/01/10 04:12:01;;;;;;;;;;;-1.10;99.90;;;;;;2620312;54;19939;-70
2024/01/10 04:14:31;;;;;;;;;;;-1.10;99.90;;;;;;2619256;49;19938;-71
2024/01/10 04:17:01;;;;;;;;;;;-1.10;99.90;;;;;;2619506;54;20004;-72
2024/01/10 04:19:31;;;;;;;;;;;-1.20;99.90;;;;;;2622931;47;19946;-70
2024/01/10 04:22:01;;;;;;;;;;;-1.20;99.90;;;;;;2621838;54;20048;-72
2024/01/10 04:24:30;;;;;;;;;;;-1.20;99.90;;;;;;2622430;54;19953;-71
2024/01/10 04:27:03;;;;;;;;;;;-1.20;99.90;;;;;;2622435;54;19943;-71
2024/01/10 04:29:34;;;;;;;;;;;-1.20;99.90;;;;;;2622126;47;20459;-71
2024/01/10 04:32:03;;;;;;;;;;;-1.20;99.90;;;;;;2619683;47;19938;-71
2024/01/10 04:34:33;;;;;;;;;;;-1.20;99.90;;;;;;2620311;47;19954;-72
2024/01/10 04:37:03;;;;;;;;;;;-1.20;99.90;;;;;;2619852;54;20034;-70
2024/01/10 04:39:32;;;;;;;;;;;-1.20;99.90;;;;;;2621406;54;19950;-71
2024/01/10 04:42:05;;;;;;;;;;;-1.20;99.90;;;;;;2619741;47;19972;-73
2024/01/10 04:44:34;;;;;;;;;;;-1.30;99.90;;;;;;2618365;47;19958;-73
2024/01/10 04:47:04;;;;;;;;;;;-1.20;99.90;;;;;;2618424;47;19972;-71
2024/01/10 04:49:34;;;;;;;;;;;-1.30;99.90;;;;;;2619703;54;19957;-73
2024/01/10 04:52:04;;;;;;;;;;;-1.20;99.90;;;;;;2618953;39;20308;-73
2024/01/10 04:54:34;;;;;;;;;;;-1.20;99.90;;;;;;2619081;39;20348;-73
2024/01/10 04:57:07;;;;;;;;;;;-1.20;99.90;;;;;;2618759;54;19946;-73
2024/01/10 04:59:36;;;;;;;;;;;-1.20;99.90;;;;;;2619246;54;20587;-71
2024/01/10 05:02:06;;;;;;;;;;;-1.10;99.90;;;;;;2618407;54;19947;-70
2024/01/10 05:04:36;;;;;;;;;;;-1.10;99.90;;;;;;2617979;47;19951;-71
2024/01/10 05:07:06;;;;;;;;;;;-1.10;99.90;;;;;;2616754;47;19946;-71
2024/01/10 05:09:36;;;;;;;;;;;-1.10;99.90;;;;;;2617523;46;19939;-71
2024/01/10 05:12:08;;;;;;;;;;;-1.00;99.90;;;;;;2617557;47;20017;-72
2024/01/10 05:14:38;;;;;;;;;;;-1.00;99.90;;;;;;2617831;48;19938;-72
2024/01/10 05:17:09;;;;;;;;;;;-1.00;99.90;;;;;;2619257;47;19953;-72
2024/01/10 05:19:39;;;;;;;;;;;-1.00;99.90;;;;;;2617278;54;19939;-71
2024/01/10 05:22:09;;;;;;;;;;;-1.00;99.90;;;;;;2618861;47;19945;-71
2024/01/10 05:24:39;;;;;;;;;;;-0.90;99.90;;;;;;2616307;47;20030;-73
2024/01/10 05:27:11;;;;;;;;;;;-0.90;99.90;;;;;;2614734;54;19946;-72
2024/01/10 05:29:41;;;;;;;;;;;-0.90;99.90;;;;;;2616965;39;20097;-71
2024/01/10 05:32:10;;;;;;;;;;;-0.90;99.90;;;;;;2616723;54;19954;-71
2024/01/10 05:34:40;;;;;;;;;;;-0.80;99.90;;;;;;2617629;54;19962;-74
2024/01/10 05:37:10;;;;;;;;;;;-0.80;99.90;;;;;;2617170;54;19965;-72
2024/01/10 05:39:39;;;;;;;;;;;-0.80;99.90;;;;;;2617669;47;19957;-72
2024/01/10 05:42:12;;;;;;;;;;;-0.70;99.90;;;;;;2618029;39;20285;-71
2024/01/10 05:44:41;;;;;;;;;;;-0.70;99.90;;;;;;2618238;47;19957;-72
2024/01/10 05:47:11;;;;;;;;;;;-0.70;99.90;;;;;;2616362;54;19946;-71
2024/01/10 05:49:42;;;;;;;;;;;-0.70;99.90;;;;;;2617594;54;19945;-71
2024/01/10 05:52:12;;;;;;;;;;;-0.60;99.90;;;;;;2618438;54;19942;-71
2024/01/10 05:54:41;;;;;;;;;;;-0.60;99.90;;;;;;2618899;54;19946;-72
2024/01/10 05:57:14;;;;;;;;;;;-0.60;99.90;;;;;;2618050;47;19950;-71
2024/01/10 05:59:43;;;;;;;;;;;-0.60;99.90;;;;;;2618764;47;19947;-71
2024/01/10 06:02:16;;;;;;;;;;;-0.60;99.90;;;;;;2617380;54;19947;-71
2024/01/10 06:04:46;;;;;;;;;;;-0.60;99.90;;;;;;2617789;54;19950;-70
2024/01/10 06:07:15;;;;;;;;;;;-0.60;99.90;;;;;;2622398;47;20478;-72
2024/01/10 06:09:46;;;;;;;;;;;-0.60;99.90;;;;;;2619992;47;19952;-74
2024/01/10 06:12:18;;;;;;;;;;;-0.60;99.90;;;;;;2618222;47;19946;-74
2024/01/10 06:14:48;;;;;;;;;;;-0.60;99.90;;;;;;2620021;54;19946;-75
2024/01/10 06:17:18;;;;;;;;;;;-0.60;99.90;;;;;;2618911;47;19965;-75
2024/01/10 06:19:48;;;;;;;;;;;-0.60;99.90;;;;;;2618994;46;19966;-76
2024/01/10 06:22:24;;;;;;;;;;;-0.60;99.90;;;;;;2618569;54;19946;-73
2024/01/10 06:24:58;;;;;;;;;;;-0.60;99.90;;;;;;2618018;47;19993;-73
2024/01/10 06:27:30;;;;;;;;;;;-0.60;99.90;;;;;;2617504;47;19968;-74
2024/01/10 06:30:00;;;;;;;;;;;-0.50;99.90;;;;;;2617814;39;20359;-73
2024/01/10 06:32:29;;;;;;;;;;;-0.60;99.90;;;;;;2617483;54;19979;-72
2024/01/10 06:35:00;;;;;;;;;;;-0.50;99.90;;;;;;2617768;47;20041;-74
2024/01/10 06:37:30;;;;;;;;;;;-0.50;99.90;;;;;;2618529;54;19939;-73
2024/01/10 06:40:04;;;;;;;;;;;-0.50;99.90;;;;;;2619335;47;19947;-74
2024/01/10 06:42:37;;;;;;;;;;;-0.50;99.90;;;;;;2617972;54;19950;-74
2024/01/10 06:45:08;;;;;;;;;;;-0.50;99.90;;;;;;2608788;39;20112;-73
2024/01/10 06:47:38;;;;;;;;;;;-0.40;99.90;;;;;;2606508;54;19968;-73
2024/01/10 06:50:09;;;;;;;;;;;-0.40;99.90;;;;;;2608358;54;19951;-74
2024/01/10 06:52:39;;;;;;;;;;;-0.40;99.90;;;;;;2606583;47;20287;-74
2024/01/10 06:55:09;;;;;;;;;;;-0.40;99.90;;;;;;2606002;47;19954;-74
2024/01/10 06:57:42;;;;;;;;;;;-0.40;99.90;;;;;;2607611;47;19947;-74
2024/01/10 07:00:12;;;;;;;;;;;-0.50;99.90;;;;;;2608183;47;19947;-75
2024/01/10 07:02:43;;;;;;;;;;;-0.40;99.90;;;;;;2607554;47;19950;-74
2024/01/10 07:05:12;;;;;;;;;;;-0.40;99.90;;;;;;2606871;54;19945;-75
2024/01/10 07:07:42;;;;;;;;;;;-0.40;99.90;;;;;;2610002;47;19996;-73
2024/01/10 07:10:12;;;;;;;;;;;-0.40;99.90;;;;;;2605512;46;19958;-74
2024/01/10 07:12:44;;;;;;;;;;;-0.40;99.90;;;;;;2608590;39;20376;-74
2024/01/10 07:15:14;;;;;;;;;;;-0.50;99.90;;;;;;2608244;54;19952;-75
2024/01/10 07:17:44;;;;;;;;;;;-0.50;99.90;;;;;;2611218;39;20602;-73
2024/01/10 07:20:14;;;;;;;;;;;-0.50;99.90;;;;;;2619106;47;19938;-72
2024/01/10 07:22:43;;;;;;;;;;;-0.50;99.90;;;;;;2620470;54;19938;-73
2024/01/10 07:25:14;;;;;;;;;;;-0.50;99.90;;;;;;2618428;47;19951;-74
2024/01/10 07:27:47;;;;;;;;;;;-0.50;99.90;;;;;;2623889;54;19938;-75
2024/01/10 07:30:16;;;;;;;;;;;-0.60;99.90;;;;;;2620127;47;19950;-73
2024/01/10 07:32:48;;;;;;;;;;;-0.60;99.90;;;;;;2620386;47;19939;-73
2024/01/10 07:35:17;;;;;;;;;;;-0.60;99.90;;;;;;2619080;47;19946;-73
2024/01/10 07:37:47;;;;;;;;;;;-0.60;99.90;;;;;;2620234;47;19947;-72
2024/01/10 07:40:17;;;;;;;;;;;-0.60;99.90;;;;;;2620105;47;19945;-75
2024/01/10 07:42:49;;;;;;;;;;;-0.60;99.90;;;;;;2620048;47;19939;-73
2024/01/10 07:45:19;;;;;;;;;;;-0.60;99.90;;;;;;2619117;39;20092;-74
2024/01/10 07:47:49;;;;;;;;;;;-0.50;99.90;;;;;;2620183;47;19945;-77
2024/01/10 07:50:19;;;;;;;;;;;-0.50;99.90;;;;;;2621503;54;19990;-76
2024/01/10 07:52:49;;;;;;;;;;;-0.50;99.90;;;;;;2623247;47;19939;-76
2024/01/10 07:55:19;;;;;;;;;;;-0.40;99.90;;;;;;2622980;54;19947;-74
2024/01/10 07:57:51;;;;;;;;;;;-0.40;99.90;;;;;;2622214;31;20447;-61
2024/01/10 08:00:22;;;;;;;;;;;-0.30;99.90;;;;;;2617630;54;19958;-60
2024/01/10 08:02:52;;;;;;;;;;;-0.40;99.90;;;;;;2614121;54;19962;-63
2024/01/10 08:05:23;;;;;;;;;;;-0.40;99.90;;;;;;2614758;54;19970;-61
2024/01/10 08:07:53;;;;;;;;;;;-0.40;99.90;;;;;;2616354;47;19978;-62
2024/01/10 08:10:22;;;;;;;;;;;-0.40;99.90;;;;;;2612983;47;19954;-62
2024/01/10 08:12:56;;;;;;;;;;;-0.40;99.90;;;;;;2617495;46;19947;-71
2024/01/10 08:15:26;;;;;;;;;;;-0.40;99.90;;;;;;2617438;47;19953;-70
2024/01/10 08:17:55;;;;;;;;;;;-0.30;99.90;;;;;;2618490;54;19939;-72
2024/01/10 08:20:25;;;;;;;;;;;-0.20;99.90;;;;;;2611462;51;21156;-72
2024/01/10 08:22:55;;;;;;;;;;;-0.20;99.90;;;;;;2608200;47;19950;-74
2024/01/10 08:25:25;;;;;;;;;;;-0.10;99.90;;;;;;2608833;47;19997;-73
2024/01/10 08:27:57;;;;;;;;;;;-0.20;99.90;;;;;;2609549;39;20384;-72
2024/01/10 08:30:27;;;;;;;;;;;-0.10;99.90;;;;;;2609358;47;20568;-72
2024/01/10 08:32:57;;;;;;;;;;;-0.10;99.90;;;;;;2609155;47;19951;-74
2024/01/10 08:35:26;;;;;;;;;;;-0.10;99.90;;;;;;2611332;47;19982;-73
2024/01/10 08:37:57;;;;;;;;;;;-0.10;99.90;;;;;;2613901;47;19958;-74
2024/01/10 08:40:27;;;;;;;;;;;0.00;99.90;;;;;;2612969;47;19946;-72
2024/01/10 08:43:00;;;;;;;;;;;0.00;99.90;;;;;;2611256;54;19950;-74
2024/01/10 08:45:29;;;;;;;;;;;0.20;99.90;;;;;;2609093;54;19946;-72
2024/01/10 08:47:59;;;;;;;;;;;0.10;99.90;;;;;;2608767;54;20441;-72
2024/01/10 08:50:29;;;;;;;;;;;0.10;99.90;;;;;;2607049;54;21020;-71
2024/01/10 08:52:59;;;;;;;;;;;0.10;99.90;;;;;;2606921;54;19977;-71
2024/01/10 08:55:29;;;;;;;;;;;1.20;99.90;;;;;;2606321;47;19954;-72
2024/01/10 08:58:02;;;;;;;;;;;0.10;99.90;;;;;;2607004;47;19946;-72
2024/01/10 09:00:32;;;;;;;;;;;-0.20;99.90;;;;;;2607774;54;20037;-72
2024/01/10 09:03:02;;;;;;;;;;;0.00;99.90;;;;;;2607696;54;19938;-72
2024/01/10 09:05:32;;;;;;;;;;;0.10;99.90;;;;;;2606980;54;19947;-72
2024/01/10 09:08:02;;;;;;;;;;;0.10;99.90;;;;;;2606772;47;19950;-71
2024/01/10 09:10:32;;;;;;;;;;;0.20;99.90;;;;;;2608523;47;19977;-72
2024/01/10 09:13:05;;;;;;;;;;;0.30;99.90;;;;;;2614210;47;19950;-74
2024/01/10 09:15:35;;;;;;;;;;;0.30;99.90;;;;;;2614762;47;19950;-72
2024/01/10 09:18:04;;;;;;;;;;;0.40;99.90;;;;;;2615338;47;19996;-72
2024/01/10 09:20:35;;;;;;;;;;;0.40;99.90;;;;;;2616667;39;20340;-75
2024/01/10 09:23:05;;;;;;;;;;;0.50;99.90;;;;;;2616018;47;20476;-73
2024/01/10 09:25:35;;;;;;;;;;;0.60;99.90;;;;;;2614619;47;19946;-74
2024/01/10 09:28:09;;;;;;;;;;;0.50;99.90;;;;;;2615206;47;20004;-72
2024/01/10 09:30:38;;;;;;;;;;;0.50;99.90;;;;;;2614638;47;19950;-74
2024/01/10 09:33:12;;;;;;;;;;;0.20;99.90;;;;;;2612484;54;19953;-74
2024/01/10 09:35:42;;;;;;;;;;;0.60;99.90;;;;;;2609956;54;19947;-74
2024/01/10 09:38:12;;;;;;;;;;;0.60;99.90;;;;;;2617545;36;19947;-73
2024/01/10 09:40:42;;;;;;;;;;;0.50;99.90;;;;;;2608517;47;19966;-73
2024/01/10 09:43:15;;;;;;;;;;;0.50;99.90;;;;;;2608134;47;19950;-74
2024/01/10 09:45:46;;;;;;;;;;;0.60;99.90;;;;;;2608974;54;19953;-73
2024/01/10 09:48:16;;;;;;;;;;;0.60;99.90;;;;;;2610991;39;20360;-75
2024/01/10 09:50:46;;;;;;;;;;;0.60;99.90;;;;;;2610446;47;19950;-75
2024/01/10 09:53:23;;;;;;;;;;;0.60;99.90;;;;;;2609128;47;19951;-74
2024/01/10 09:55:56;;;;;;;;;;;0.60;99.90;;;;;;2609827;54;19946;-74
2024/01/10 09:58:29;;;;;;;;;;;0.60;99.90;;;;;;2608333;47;19946;-76
2024/01/10 10:00:59;;;;;;;;;;;0.70;99.90;;;;;;2609745;39;20264;-76
2024/01/10 10:03:29;;;;;;;;;;;0.70;99.90;;;;;;2609502;47;19961;-75
2024/01/10 10:06:00;;;;;;;;;;;0.70;99.90;;;;;;2607952;47;19953;-76
2024/01/10 10:08:30;;;;;;;;;;;0.70;99.90;;;;;;2608638;54;20042;-74
2024/01/10 10:10:59;;;;;;;;;;;0.70;99.90;;;;;;2611078;47;19988;-73
2024/01/10 10:13:35;;;;;;;;;;;0.80;99.90;;;;;;2611150;46;19947;-72
2024/01/10 10:16:06;;;;;;;;;;;0.80;99.90;;;;;;2609212;54;19953;-75
2024/01/10 10:18:38;;;;;;;;;;;0.80;99.90;;;;;;2609760;39;20353;-74
2024/01/10 10:21:09;;;;;;;;;;;0.80;99.90;;;;;;2609717;54;19947;-73
2024/01/10 10:23:39;;;;;;;;;;;0.80;99.90;;;;;;2610373;47;19946;-73
2024/01/10 10:26:21;;;;;;;;;;;0.90;99.90;;;;;;2609974;47;19954;-76
2024/01/10 10:28:55;;;;;;;;;;;0.90;99.90;;;;;;2611613;47;20433;-72
2024/01/10 10:31:25;;;;;;;;;;;0.80;99.90;;;;;;2611781;54;20097;-73
2024/01/10 10:33:55;;;;;;;;;;;0.80;99.90;;;;;;2609573;54;19997;-74
2024/01/10 10:36:25;;;;;;;;;;;0.80;99.90;;;;;;2610369;51;19947;-74
2024/01/10 10:38:55;;;;;;;;;;;0.80;99.90;;;;;;2611342;54;19953;-76
2024/01/10 10:41:26;;;;;;;;;;;1.00;99.90;;;;;;2612687;39;20322;-76
2024/01/10 10:43:58;;;;;;;;;;;0.90;99.90;;;;;;2612771;54;19947;-76
2024/01/10 10:46:29;;;;;;;;;;;0.90;99.90;;;;;;2611995;47;19951;-77
2024/01/10 10:49:01;;;;;;;;;;;1.90;99.90;;;;;;2613593;54;19953;-76
2024/01/10 10:51:36;;;;;;;;;;;1.00;99.90;;;;;;2608030;54;20077;-76
2024/01/10 10:54:06;;;;;;;;;;;1.00;99.90;;;;;;2608584;47;19958;-76
2024/01/10 10:56:37;;;;;;;;;;;1.00;99.90;;;;;;2609510;47;20205;-76
2024/01/10 10:59:10;;;;;;;;;;;1.00;99.90;;;;;;2607606;47;20034;-77
2024/01/10 11:01:40;;;;;;;;;;;1.10;99.90;;;;;;2606704;54;19970;-77
2024/01/10 11:04:10;;;;;;;;;;;1.30;99.90;;;;;;2607333;46;20766;-77
2024/01/10 11:06:40;;;;;;;;;;;0.60;99.90;;;;;;2608017;54;19946;-77
2024/01/10 11:09:12;;;;;;;;;;;1.00;99.90;;;;;;2607311;46;19947;-79
2024/01/10 11:11:49;;;;;;;;;;;1.70;99.90;;;;;;2608178;47;19947;-79
2024/01/10 11:14:27;;;;;;;;;;;1.10;99.90;;;;;;2608884;47;20053;-78
2024/01/10 11:17:11;;;;;;;;;;;1.10;99.90;;;;;;2608080;47;19954;-78
2024/01/10 11:19:55;;;;;;;;;;;1.20;99.90;;;;;;2611346;54;20002;-77
2024/01/10 11:22:34;;;;;;;;;;;1.20;99.90;;;;;;2614723;54;19951;-77
2024/01/10 11:25:05;;;;;;;;;;;1.20;99.90;;;;;;2607711;46;20437;-73
2024/01/10 11:27:34;;;;;;;;;;;1.30;99.90;;;;;;2606257;54;19955;-76
2024/01/10 11:30:07;;;;;;;;;;;1.40;99.90;;;;;;2605790;47;19938;-73
2024/01/10 11:32:37;;;;;;;;;;;1.40;99.90;;;;;;2606974;47;19947;-75
2024/01/10 11:35:11;;;;;;;;;;;1.40;99.90;;;;;;2607858;47;20042;-77
2024/01/10 11:37:42;;;;;;;;;;;1.50;99.90;;;;;;2607802;54;19947;-77
2024/01/10 11:40:12;;;;;;;;;;;1.60;99.90;;;;;;2606441;47;19946;-77
2024/01/10 11:42:45;;;;;;;;;;;1.50;99.90;;;;;;2606404;47;19947;-75
2024/01/10 11:45:38;;;;;;;;;;;1.60;99.90;;;;;;2605329;54;19951;-75
2024/01/10 11:48:09;;;;;;;;;;;1.70;99.90;;;;;;2607992;47;19947;-75
2024/01/10 11:50:39;;;;;;;;;;;1.70;99.90;;;;;;2606428;54;19950;-75
2024/01/10 11:53:09;;;;;;;;;;;1.70;99.90;;;;;;2607188;54;19951;-74
2024/01/10 15:27:32;;;;;;;;;;;1.50;99.90;;;;;;2613023;46;20198;-74
2024/01/10 15:30:10;;;;;;;;;;;1.60;99.90;;;;;;2612267;47;19985;-74
2024/01/10 15:32:45;;;;;;;;;;;1.50;99.90;;;;;;2611126;54;19946;-74
2024/01/10 15:35:15;;;;;;;;;;;1.70;99.90;;;;;;2610452;47;20043;-74
2024/01/10 15:37:46;;;;;;;;;;;1.50;99.90;;;;;;2613198;54;19938;-75
2024/01/10 15:40:17;;;;;;;;;;;1.40;99.90;;;;;;2613413;47;19946;-76
2024/01/10 15:42:51;;;;;;;;;;;1.40;99.90;;;;;;2612383;54;19954;-77
2024/01/10 15:45:22;;;;;;;;;;;1.40;99.90;;;;;;2613555;47;19954;-76
2024/01/10 15:47:52;;;;;;;;;;;1.40;99.90;;;;;;2616240;47;20476;-76
2024/01/10 15:50:25;;;;;;;;;;;1.40;99.90;;;;;;2614121;50;19946;-77
2024/01/10 15:52:55;;;;;;;;;;;2.40;99.90;;;;;;2614887;39;20353;-77
2024/01/10 15:55:27;;;;;;;;;;;1.40;99.90;;;;;;2611775;54;19950;-76
2024/01/10 15:57:59;;;;;;;;;;;1.30;99.90;;;;;;2608565;47;19954;-80
2024/01/10 16:00:29;;;;;;;;;;;1.30;99.90;;;;;;2612186;47;19947;-79
2024/01/10 16:02:59;;;;;;;;;;;1.30;99.90;;;;;;2619106;47;20453;-78
2024/01/10 16:05:28;;;;;;;;;;;1.20;99.90;;;;;;2621499;54;19947;-79
2024/01/10 16:07:58;;;;;;;;;;;1.20;99.90;;;;;;2618491;47;19951;-74
2024/01/10 16:10:28;;;;;;;;;;;1.20;99.90;;;;;;2617109;54;19946;-75
2024/01/10 16:13:00;;;;;;;;;;;1.20;99.90;;;;;;2616135;54;19945;-75
2024/01/10 16:15:30;;;;;;;;;;;1.20;99.90;;;;;;2616960;47;19946;-75
2024/01/10 16:18:00;;;;;;;;;;;1.20;99.90;;;;;;2615262;39;20357;-74
2024/01/10 16:20:30;;;;;;;;;;;1.20;99.90;;;;;;2616057;46;20032;-74
2024/01/10 16:23:00;;;;;;;;;;;1.20;99.90;;;;;;2616397;46;20037;-75
2024/01/10 16:25:30;;;;;;;;;;;1.10;99.90;;;;;;2616424;47;19954;-73
2024/01/10 16:28:02;;;;;;;;;;;1.10;99.90;;;;;;2616540;47;19946;-76
2024/01/10 16:30:32;;;;;;;;;;;1.00;99.90;;;;;;2624933;54;19963;-74
2024/01/10 16:33:02;;;;;;;;;;;1.00;99.90;;;;;;2621516;47;19997;-72
2024/01/10 16:35:32;;;;;;;;;;;1.00;99.90;;;;;;2617582;54;19950;-74
2024/01/10 16:38:02;;;;;;;;;;;1.00;99.90;;;;;;2617968;46;19961;-72
2024/01/10 16:40:31;;;;;;;;;;;1.10;99.90;;;;;;2617142;54;19966;-73
2024/01/10 16:43:04;;;;;;;;;;;1.00;99.90;;;;;;2617515;47;19951;-76
2024/01/10 16:45:34;;;;;;;;;;;1.00;99.90;;;;;;2622009;47;19977;-76
2024/01/10 16:48:03;;;;;;;;;;;1.00;99.90;;;;;;2621344;54;19947;-75
2024/01/10 16:50:33;;;;;;;;;;;1.00;99.90;;;;;;2618118;47;19954;-75
2024/01/10 16:53:03;;;;;;;;;;;1.00;99.90;;;;;;2618285;47;19985;-75
2024/01/10 16:55:33;;;;;;;;;;;1.00;99.90;;;;;;2617757;47;19939;-75
2024/01/10 16:58:05;;;;;;;;;;;0.90;99.90;;;;;;2618674;47;20456;-75
2024/01/10 17:00:35;;;;;;;;;;;0.90;99.90;;;;;;2617741;54;20489;-75
2024/01/10 17:03:05;;;;;;;;;;;0.90;99.90;;;;;;2618389;31;20416;-74
2024/01/10 17:05:35;;;;;;;;;;;0.80;99.90;;;;;;2617152;54;19946;-73
2024/01/10 17:08:10;;;;;;;;;;;0.80;99.90;;;;;;2619004;47;19938;-75
2024/01/10 17:10:40;;;;;;;;;;;0.80;99.90;;;;;;2617427;46;19947;-75
2024/01/10 17:13:12;;;;;;;;;;;0.50;99.90;;;;;;2617513;46;19953;-74
2024/01/10 17:15:42;;;;;;;;;;;0.50;99.90;;;;;;2617815;47;20441;-76
2024/01/10 17:18:12;;;;;;;;;;;0.50;99.90;;;;;;2620202;47;19946;-74
2024/01/10 17:20:41;;;;;;;;;;;0.50;99.90;;;;;;2619390;54;19957;-72
2024/01/10 17:23:12;;;;;;;;;;;0.50;99.90;;;;;;2619992;54;19946;-74
2024/01/10 17:25:42;;;;;;;;;;;0.50;99.90;;;;;;2617988;47;19954;-76
2024/01/10 17:28:15;;;;;;;;;;;0.50;99.90;;;;;;2619063;54;19950;-73
2024/01/10 17:30:44;;;;;;;;;;;0.60;99.90;;;;;;2619446;47;19954;-72
2024/01/10 17:33:14;;;;;;;;;;;0.60;99.90;;;;;;2619260;54;19957;-74
2024/01/10 17:35:44;;;;;;;;;;;0.70;99.90;;;;;;2620622;54;19991;-76
2024/01/10 17:38:14;;;;;;;;;;;0.60;99.90;;;;;;2619816;47;19943;-78
2024/01/10 17:40:44;;;;;;;;;;;0.70;99.90;;;;;;2620306;47;19942;-76
2024/01/10 17:43:17;;;;;;;;;;;0.70;99.90;;;;;;2618382;47;19950;-74
2024/01/10 17:45:46;;;;;;;;;;;0.70;99.90;;;;;;2617947;54;19951;-77
2024/01/10 17:48:16;;;;;;;;;;;0.60;99.90;;;;;;2614426;47;19969;-76
2024/01/10 17:50:48;;;;;;;;;;;0.60;99.90;;;;;;2617040;54;19953;-73
2024/01/10 17:53:17;;;;;;;;;;;0.60;99.90;;;;;;2618208;54;19973;-72
2024/01/10 17:55:47;;;;;;;;;;;0.60;99.90;;;;;;2614090;54;19954;-73
2024/01/10 17:58:20;;;;;;;;;;;0.60;99.90;;;;;;2616597;47;20042;-75
2024/01/10 18:00:49;;;;;;;;;;;0.60;99.90;;;;;;2616862;47;19967;-75
2024/01/10 18:03:19;;;;;;;;;;;0.60;99.90;;;;;;2618908;47;19939;-75
2024/01/10 18:05:49;;;;;;;;;;;0.50;99.90;;;;;;2617316;47;19946;-76
2024/01/10 18:08:18;;;;;;;;;;;0.50;99.90;;;;;;2616579;54;19950;-77
2024/01/10 18:10:51;;;;;;;;;;;0.60;99.90;;;;;;2613078;47;19923;-75
2024/01/10 18:13:23;;;;;;;;;;;-0.70;99.90;;;;;;2626229;54;19950;-74
2024/01/10 18:15:53;;;;;;;;;;;0.50;99.90;;;;;;2627236;39;20520;-73